sensor_id;sensor_type;location;lat;lon;timestamp;pressure;altitude;pressure_sealevel;temperature;humidity
44531;BME280;30240;47.418;0.700;2023-05-24T00:01:58;100958.95385742188;;;11.99;81.97
44531;BME280;30240;47.418;0.700;2023-05-24T00:04:23;100961.62719726562;;;12.0;81.68
44531;BME280;30240;47.418;0.700;2023-05-24T00:06:48;100962.40844726562;;;11.93;81.79
44531;BME280;30240;47.418;0.700;2023-05-24T00:09:13;100962.40844726562;;;11.93;81.79
44531;BME280;30240;47.418;0.700;2023-05-24T00:11:38;100958.45947265625;;;11.87;81.87
44531;BME280;30240;47.418;0.700;2023-05-24T00:14:03;100956.10961914062;;;11.83;81.67
44531;BME280;30240;47.418;0.700;2023-05-24T00:16:29;100959.375;;;11.81;81.86
44531;BME280;30240;47.418;0.700;2023-05-24T00:18:53;100960.55297851562;;;11.75;81.92
44531;BME280;30240;47.418;0.700;2023-05-24T00:21:19;100960.55297851562;;;11.75;81.92
44531;BME280;30240;47.418;0.700;2023-05-24T00:23:43;100961.75537109375;;;11.65;82.05
44531;BME280;30240;47.418;0.700;2023-05-24T00:26:08;100957.8857421875;;;11.68;81.96
44531;BME280;30240;47.418;0.700;2023-05-24T00:28:34;100945.703125;;;11.55;81.92
44531;BME280;30240;47.418;0.700;2023-05-24T00:30:59;100934.4970703125;;;11.55;81.93
44531;BME280;30240;47.418;0.700;2023-05-24T00:33:24;100934.4970703125;;;11.55;81.93
44531;BME280;30240;47.418;0.700;2023-05-24T00:35:48;100941.80297851562;;;11.45;81.99
44531;BME280;30240;47.418;0.700;2023-05-24T00:38:13;100948.29711914062;;;11.5;81.98
44531;BME280;30240;47.418;0.700;2023-05-24T00:40:38;100942.58422851562;;;11.33;82.13
44531;BME280;30240;47.418;0.700;2023-05-24T00:43:04;100945.9228515625;;;11.34;82.17
44531;BME280;30240;47.418;0.700;2023-05-24T00:45:28;100935.80322265625;;;11.26;82.22
44531;BME280;30240;47.418;0.700;2023-05-24T00:47:55;100935.80322265625;;;11.26;82.22
44531;BME280;30240;47.418;0.700;2023-05-24T00:50:18;100932.04956054688;;;11.26;82.27
44531;BME280;30240;47.418;0.700;2023-05-24T00:52:44;100929.345703125;;;11.22;82.24
44531;BME280;30240;47.418;0.700;2023-05-24T00:55:09;100930.48706054688;;;11.17;82.31
44531;BME280;30240;47.418;0.700;2023-05-24T00:57:35;100935.15625;;;11.15;82.4
44531;BME280;30240;47.418;0.700;2023-05-24T00:59:59;100935.15625;;;11.15;82.4
44531;BME280;30240;47.418;0.700;2023-05-24T01:02:24;100935.87646484375;;;11.13;82.29
44531;BME280;30240;47.418;0.700;2023-05-24T01:04:48;100931.46362304688;;;11.03;82.56
44531;BME280;30240;47.418;0.700;2023-05-24T01:07:17;100924.12719726562;;;11.03;82.51
44531;BME280;30240;47.418;0.700;2023-05-24T01:09:52;100930.46875;;;10.95;82.71
44531;BME280;30240;47.418;0.700;2023-05-24T01:12:10;100930.46875;;;10.95;82.71
44531;BME280;30240;47.418;0.700;2023-05-24T01:14:40;100932.1533203125;;;10.85;82.88
44531;BME280;30240;47.418;0.700;2023-05-24T01:16:58;100940.3564453125;;;10.86;82.89
44531;BME280;30240;47.418;0.700;2023-05-24T01:17:03;100940.3564453125;;;10.86;82.89
44531;BME280;30240;47.418;0.700;2023-05-24T01:19:39;100939.76440429688;;;10.82;82.89
44531;BME280;30240;47.418;0.700;2023-05-24T01:21:49;100938.02490234375;;;10.76;82.74
44531;BME280;30240;47.418;0.700;2023-05-24T01:24:13;100938.02490234375;;;10.76;82.74
44531;BME280;30240;47.418;0.700;2023-05-24T01:26:37;100933.38012695312;;;10.75;82.64
44531;BME280;30240;47.418;0.700;2023-05-24T01:28:59;100933.43505859375;;;10.72;82.74
44531;BME280;30240;47.418;0.700;2023-05-24T01:31:24;100926.59912109375;;;10.65;82.84
44531;BME280;30240;47.418;0.700;2023-05-24T01:33:49;100919.25048828125;;;10.61;82.83
44531;BME280;30240;47.418;0.700;2023-05-24T01:36:13;100919.25048828125;;;10.61;82.83
44531;BME280;30240;47.418;0.700;2023-05-24T01:38:39;100919.7021484375;;;10.57;82.96
44531;BME280;30240;47.418;0.700;2023-05-24T01:41:08;100921.37451171875;;;10.57;82.9
44531;BME280;30240;47.418;0.700;2023-05-24T01:41:14;100921.37451171875;;;10.57;82.9
44531;BME280;30240;47.418;0.700;2023-05-24T01:43:32;100922.76611328125;;;10.64;82.7
44531;BME280;30240;47.418;0.700;2023-05-24T01:46:02;100923.6572265625;;;10.51;82.75
44531;BME280;30240;47.418;0.700;2023-05-24T01:48:23;100923.6572265625;;;10.51;82.75
44531;BME280;30240;47.418;0.700;2023-05-24T01:50:45;100921.23413085938;;;10.54;82.68
44531;BME280;30240;47.418;0.700;2023-05-24T01:53:12;100920.1171875;;;10.51;82.6
44531;BME280;30240;47.418;0.700;2023-05-24T01:55:35;100918.9697265625;;;10.44;82.67
44531;BME280;30240;47.418;0.700;2023-05-24T01:58:01;100917.51708984375;;;10.43;82.81
44531;BME280;30240;47.418;0.700;2023-05-24T02:00:24;100917.51708984375;;;10.43;82.81
44531;BME280;30240;47.418;0.700;2023-05-24T02:02:49;100917.7978515625;;;10.44;82.69
44531;BME280;30240;47.418;0.700;2023-05-24T02:05:13;100924.23706054688;;;10.37;82.78
44531;BME280;30240;47.418;0.700;2023-05-24T02:07:38;100918.798828125;;;10.32;82.73
44531;BME280;30240;47.418;0.700;2023-05-24T02:10:04;100920.8740234375;;;10.36;82.68
44531;BME280;30240;47.418;0.700;2023-05-24T02:12:29;100921.84448242188;;;10.28;82.77
44531;BME280;30240;47.418;0.700;2023-05-24T02:14:53;100921.84448242188;;;10.28;82.77
44531;BME280;30240;47.418;0.700;2023-05-24T02:17:18;100923.93798828125;;;10.25;82.83
44531;BME280;30240;47.418;0.700;2023-05-24T02:19:43;100925.9033203125;;;10.26;82.78
44531;BME280;30240;47.418;0.700;2023-05-24T02:22:08;100924.0966796875;;;10.17;82.97
44531;BME280;30240;47.418;0.700;2023-05-24T02:24:34;100928.08837890625;;;10.15;82.99
44531;BME280;30240;47.418;0.700;2023-05-24T02:26:59;100928.08837890625;;;10.15;82.99
44531;BME280;30240;47.418;0.700;2023-05-24T02:29:25;100937.56103515625;;;10.12;82.96
44531;BME280;30240;47.418;0.700;2023-05-24T02:31:49;100936.5966796875;;;10.06;83.16
44531;BME280;30240;47.418;0.700;2023-05-24T02:34:14;100938.16528320312;;;9.94;83.39
44531;BME280;30240;47.418;0.700;2023-05-24T02:36:39;100939.794921875;;;9.9;83.54
44531;BME280;30240;47.418;0.700;2023-05-24T02:39:04;100939.794921875;;;9.9;83.54
44531;BME280;30240;47.418;0.700;2023-05-24T02:41:29;100943.46923828125;;;9.87;83.52
44531;BME280;30240;47.418;0.700;2023-05-24T02:43:54;100944.54956054688;;;9.85;83.51
44531;BME280;30240;47.418;0.700;2023-05-24T02:46:19;100940.8447265625;;;9.81;83.5
44531;BME280;30240;47.418;0.700;2023-05-24T02:48:44;100942.68798828125;;;9.87;83.39
44531;BME280;30240;47.418;0.700;2023-05-24T02:51:09;100942.68798828125;;;9.87;83.39
44531;BME280;30240;47.418;0.700;2023-05-24T02:53:34;100940.3564453125;;;9.81;83.41
44531;BME280;30240;47.418;0.700;2023-05-24T02:55:59;100940.14892578125;;;9.71;83.38
44531;BME280;30240;47.418;0.700;2023-05-24T02:58:24;100933.6669921875;;;9.73;83.38
44531;BME280;30240;47.418;0.700;2023-05-24T03:00:49;100926.3916015625;;;9.7;83.35
44531;BME280;30240;47.418;0.700;2023-05-24T03:03:14;100926.3916015625;;;9.7;83.35
44531;BME280;30240;47.418;0.700;2023-05-24T03:05:39;100925.25634765625;;;9.7;83.3
44531;BME280;30240;47.418;0.700;2023-05-24T03:08:04;100923.06518554688;;;9.7;83.2
44531;BME280;30240;47.418;0.700;2023-05-24T03:10:29;100925.341796875;;;9.61;83.39
44531;BME280;30240;47.418;0.700;2023-05-24T03:12:54;100933.75244140625;;;9.64;83.4
44531;BME280;30240;47.418;0.700;2023-05-24T03:15:19;100933.75244140625;;;9.64;83.4
44531;BME280;30240;47.418;0.700;2023-05-24T03:17:44;100930.74951171875;;;9.61;83.43
44531;BME280;30240;47.418;0.700;2023-05-24T03:20:09;100926.9287109375;;;9.42;83.6
44531;BME280;30240;47.418;0.700;2023-05-24T03:22:33;100916.5283203125;;;9.39;83.73
44531;BME280;30240;47.418;0.700;2023-05-24T03:24:59;100918.0908203125;;;9.43;83.72
44531;BME280;30240;47.418;0.700;2023-05-24T03:27:24;100918.0908203125;;;9.43;83.72
44531;BME280;30240;47.418;0.700;2023-05-24T03:29:49;100922.802734375;;;9.36;83.77
44531;BME280;30240;47.418;0.700;2023-05-24T03:32:14;100924.13940429688;;;9.39;83.72
44531;BME280;30240;47.418;0.700;2023-05-24T03:34:38;100931.201171875;;;9.39;83.8
44531;BME280;30240;47.418;0.700;2023-05-24T03:37:03;100926.220703125;;;9.28;83.75
44531;BME280;30240;47.418;0.700;2023-05-24T03:39:29;100931.97021484375;;;9.21;83.97
44531;BME280;30240;47.418;0.700;2023-05-24T03:41:54;100931.97021484375;;;9.21;83.97
44531;BME280;30240;47.418;0.700;2023-05-24T03:44:19;100931.34155273438;;;9.26;83.81
44531;BME280;30240;47.418;0.700;2023-05-24T03:46:43;100930.96923828125;;;9.21;83.9
44531;BME280;30240;47.418;0.700;2023-05-24T03:49:08;100933.86840820312;;;9.1;84.13
44531;BME280;30240;47.418;0.700;2023-05-24T03:51:34;100932.6904296875;;;9.1;84.05
44531;BME280;30240;47.418;0.700;2023-05-24T03:53:59;100932.6904296875;;;9.1;84.05
44531;BME280;30240;47.418;0.700;2023-05-24T03:56:25;100930.75561523438;;;9.12;83.94
44531;BME280;30240;47.418;0.700;2023-05-24T03:58:49;100931.89086914062;;;9.07;83.98
44531;BME280;30240;47.418;0.700;2023-05-24T04:01:14;100929.13208007812;;;9.01;84.13
44531;BME280;30240;47.418;0.700;2023-05-24T04:03:39;100934.423828125;;;8.96;84.1
44531;BME280;30240;47.418;0.700;2023-05-24T04:06:04;100934.423828125;;;8.96;84.1
44531;BME280;30240;47.418;0.700;2023-05-24T04:08:29;100941.58325195312;;;8.94;84.12
44531;BME280;30240;47.418;0.700;2023-05-24T04:10:54;100937.43896484375;;;8.91;84.06
44531;BME280;30240;47.418;0.700;2023-05-24T04:13:18;100947.40600585938;;;8.91;84.18
44531;BME280;30240;47.418;0.700;2023-05-24T04:15:44;100941.12548828125;;;8.85;84.13
44531;BME280;30240;47.418;0.700;2023-05-24T04:18:09;100941.12548828125;;;8.85;84.13
44531;BME280;30240;47.418;0.700;2023-05-24T04:20:34;100942.43774414062;;;8.85;84.08
44531;BME280;30240;47.418;0.700;2023-05-24T04:22:59;100945.64819335938;;;8.9;84.04
44531;BME280;30240;47.418;0.700;2023-05-24T04:25:24;100938.20190429688;;;8.88;84.01
44531;BME280;30240;47.418;0.700;2023-05-24T04:27:48;100942.09594726562;;;8.88;83.98
44531;BME280;30240;47.418;0.700;2023-05-24T04:30:14;100942.09594726562;;;8.88;83.98
44531;BME280;30240;47.418;0.700;2023-05-24T04:32:38;100940.27099609375;;;8.91;83.85
44531;BME280;30240;47.418;0.700;2023-05-24T04:35:04;100940.22827148438;;;8.94;83.83
44531;BME280;30240;47.418;0.700;2023-05-24T04:37:28;100940.60668945312;;;8.83;83.86
44531;BME280;30240;47.418;0.700;2023-05-24T04:39:54;100927.34985351562;;;8.84;83.75
44531;BME280;30240;47.418;0.700;2023-05-24T04:42:18;100927.34985351562;;;8.84;83.75
44531;BME280;30240;47.418;0.700;2023-05-24T04:44:44;100934.4970703125;;;8.9;83.76
44531;BME280;30240;47.418;0.700;2023-05-24T04:47:09;100938.25073242188;;;8.87;83.81
44531;BME280;30240;47.418;0.700;2023-05-24T04:49:33;100936.90795898438;;;8.97;83.54
44531;BME280;30240;47.418;0.700;2023-05-24T04:51:59;100942.1875;;;8.9;83.61
44531;BME280;30240;47.418;0.700;2023-05-24T04:54:23;100942.1875;;;8.9;83.61
44531;BME280;30240;47.418;0.700;2023-05-24T04:56:49;100936.89575195312;;;8.94;83.61
44531;BME280;30240;47.418;0.700;2023-05-24T04:59:14;100930.18798828125;;;8.91;83.61
44531;BME280;30240;47.418;0.700;2023-05-24T05:01:39;100938.134765625;;;9.03;83.36
44531;BME280;30240;47.418;0.700;2023-05-24T05:04:04;100932.73315429688;;;9.05;83.36
44531;BME280;30240;47.418;0.700;2023-05-24T05:06:30;100932.73315429688;;;9.05;83.36
44531;BME280;30240;47.418;0.700;2023-05-24T05:08:54;100934.82055664062;;;9.07;83.35
44531;BME280;30240;47.418;0.700;2023-05-24T05:11:19;100937.04833984375;;;9.07;83.25
44531;BME280;30240;47.418;0.700;2023-05-24T05:13:44;100939.20288085938;;;9.16;83.24
44531;BME280;30240;47.418;0.700;2023-05-24T05:16:08;100936.6455078125;;;9.22;82.98
44531;BME280;30240;47.418;0.700;2023-05-24T05:18:33;100939.6240234375;;;9.31;83.11
44531;BME280;30240;47.418;0.700;2023-05-24T05:20:58;100939.6240234375;;;9.31;83.11
44531;BME280;30240;47.418;0.700;2023-05-24T05:23:24;100939.3310546875;;;9.26;82.91
44531;BME280;30240;47.418;0.700;2023-05-24T05:25:49;100940.21606445312;;;9.29;82.91
44531;BME280;30240;47.418;0.700;2023-05-24T05:28:14;100948.43139648438;;;9.46;82.58
44531;BME280;30240;47.418;0.700;2023-05-24T05:30:38;100940.46630859375;;;9.57;82.49
44531;BME280;30240;47.418;0.700;2023-05-24T05:33:04;100940.46630859375;;;9.57;82.49
44531;BME280;30240;47.418;0.700;2023-05-24T05:35:29;100941.00952148438;;;9.49;82.64
44531;BME280;30240;47.418;0.700;2023-05-24T05:37:53;100927.42309570312;;;9.61;82.46
44531;BME280;30240;47.418;0.700;2023-05-24T05:40:18;100935.23559570312;;;9.66;82.42
44531;BME280;30240;47.418;0.700;2023-05-24T05:42:44;100941.76635742188;;;9.61;82.32
44531;BME280;30240;47.418;0.700;2023-05-24T05:45:09;100941.76635742188;;;9.61;82.32
44531;BME280;30240;47.418;0.700;2023-05-24T05:47:34;100947.0947265625;;;9.66;82.53
44531;BME280;30240;47.418;0.700;2023-05-24T05:49:58;100941.68090820312;;;9.73;82.4
44531;BME280;30240;47.418;0.700;2023-05-24T05:52:23;100947.7294921875;;;9.88;81.8
44531;BME280;30240;47.418;0.700;2023-05-24T05:54:48;100947.76611328125;;;9.88;82.1
44531;BME280;30240;47.418;0.700;2023-05-24T05:57:13;100947.76611328125;;;9.88;82.1
44531;BME280;30240;47.418;0.700;2023-05-24T05:59:39;100947.607421875;;;9.82;82.01
44531;BME280;30240;47.418;0.700;2023-05-24T06:02:05;100941.63818359375;;;9.78;82.21
44531;BME280;30240;47.418;0.700;2023-05-24T06:04:28;100946.3134765625;;;10.06;81.62
44531;BME280;30240;47.418;0.700;2023-05-24T06:06:54;100948.34594726562;;;10.22;81.07
44531;BME280;30240;47.418;0.700;2023-05-24T06:09:19;100948.34594726562;;;10.22;81.07
44531;BME280;30240;47.418;0.700;2023-05-24T06:11:44;100949.51782226562;;;10.25;81.46
44531;BME280;30240;47.418;0.700;2023-05-24T06:14:09;100954.15649414062;;;10.4;80.78
44531;BME280;30240;47.418;0.700;2023-05-24T06:16:34;100956.0791015625;;;10.33;81.17
44531;BME280;30240;47.418;0.700;2023-05-24T06:18:58;100944.78149414062;;;10.41;80.77
44531;BME280;30240;47.418;0.700;2023-05-24T06:21:23;100944.78149414062;;;10.41;80.77
44531;BME280;30240;47.418;0.700;2023-05-24T06:23:49;100946.52099609375;;;10.84;80.01
44531;BME280;30240;47.418;0.700;2023-05-24T06:26:13;100954.296875;;;11.15;79.31
44531;BME280;30240;47.418;0.700;2023-05-24T06:28:38;100948.57788085938;;;11.02;79.23
44531;BME280;30240;47.418;0.700;2023-05-24T06:31:04;100952.70385742188;;;11.31;78.8
44531;BME280;30240;47.418;0.700;2023-05-24T06:33:29;100952.70385742188;;;11.31;78.8
44531;BME280;30240;47.418;0.700;2023-05-24T06:35:53;100950.92163085938;;;11.19;78.61
44531;BME280;30240;47.418;0.700;2023-05-24T06:38:18;100953.60107421875;;;11.52;78.13
44531;BME280;30240;47.418;0.700;2023-05-24T06:40:44;100957.92236328125;;;11.4;78.3
44531;BME280;30240;47.418;0.700;2023-05-24T06:43:09;100962.72583007812;;;11.71;77.86
44531;BME280;30240;47.418;0.700;2023-05-24T06:45:34;100956.55517578125;;;11.44;78.3
44531;BME280;30240;47.418;0.700;2023-05-24T06:47:58;100956.55517578125;;;11.44;78.3
44531;BME280;30240;47.418;0.700;2023-05-24T06:50:23;100962.158203125;;;11.64;78.32
44531;BME280;30240;47.418;0.700;2023-05-24T06:52:48;100951.95922851562;;;11.55;78.07
44531;BME280;30240;47.418;0.700;2023-05-24T06:55:14;100951.4404296875;;;11.75;77.68
44531;BME280;30240;47.418;0.700;2023-05-24T06:57:38;100951.70288085938;;;12.12;76.64
44531;BME280;30240;47.418;0.700;2023-05-24T07:00:04;100951.70288085938;;;12.12;76.64
44531;BME280;30240;47.418;0.700;2023-05-24T07:02:29;100953.06396484375;;;12.16;76.66
44531;BME280;30240;47.418;0.700;2023-05-24T07:04:53;100951.72729492188;;;12.63;75.37
44531;BME280;30240;47.418;0.700;2023-05-24T07:07:19;100953.70483398438;;;12.69;74.98
44531;BME280;30240;47.418;0.700;2023-05-24T07:09:43;100961.8408203125;;;13.17;74.29
44531;BME280;30240;47.418;0.700;2023-05-24T07:12:09;100961.8408203125;;;13.17;74.29
44531;BME280;30240;47.418;0.700;2023-05-24T07:14:34;100959.53979492188;;;12.59;75.09
44531;BME280;30240;47.418;0.700;2023-05-24T07:16:59;100951.37329101562;;;12.6;75.21
44531;BME280;30240;47.418;0.700;2023-05-24T07:19:24;100960.1318359375;;;12.87;75.05
44531;BME280;30240;47.418;0.700;2023-05-24T07:21:48;100957.70263671875;;;13.19;74.04
44531;BME280;30240;47.418;0.700;2023-05-24T07:24:13;100957.70263671875;;;13.19;74.04
44531;BME280;30240;47.418;0.700;2023-05-24T07:26:38;100961.48681640625;;;12.96;74.01
44531;BME280;30240;47.418;0.700;2023-05-24T07:29:04;100955.16967773438;;;13.26;73.21
44531;BME280;30240;47.418;0.700;2023-05-24T07:31:28;100955.84106445312;;;13.45;73.02
44531;BME280;30240;47.418;0.700;2023-05-24T07:33:53;100960.791015625;;;13.8;71.91
44531;BME280;30240;47.418;0.700;2023-05-24T07:36:19;100960.791015625;;;13.8;71.91
44531;BME280;30240;47.418;0.700;2023-05-24T07:38:44;100962.51831054688;;;13.56;72.58
44531;BME280;30240;47.418;0.700;2023-05-24T07:41:09;100968.04809570312;;;14.11;71.58
44531;BME280;30240;47.418;0.700;2023-05-24T07:43:38;100966.93725585938;;;13.97;72.06
44531;BME280;30240;47.418;0.700;2023-05-24T07:45:58;100967.27905273438;;;14.78;70.19
44531;BME280;30240;47.418;0.700;2023-05-24T07:48:23;100967.27905273438;;;14.78;70.19
44531;BME280;30240;47.418;0.700;2023-05-24T07:50:49;100965.63110351562;;;14.95;69.33
44531;BME280;30240;47.418;0.700;2023-05-24T07:53:14;100962.7685546875;;;14.77;69.7
44531;BME280;30240;47.418;0.700;2023-05-24T07:55:39;100968.06030273438;;;14.99;68.92
44531;BME280;30240;47.418;0.700;2023-05-24T07:58:03;100966.90673828125;;;15.2;68.44
44531;BME280;30240;47.418;0.700;2023-05-24T08:00:28;100966.90673828125;;;15.2;68.44
44531;BME280;30240;47.418;0.700;2023-05-24T08:02:54;100971.6064453125;;;15.22;68.21
44531;BME280;30240;47.418;0.700;2023-05-24T08:05:18;100969.78149414062;;;15.09;68.22
44531;BME280;30240;47.418;0.700;2023-05-24T08:07:43;100976.75170898438;;;15.62;67.48
44531;BME280;30240;47.418;0.700;2023-05-24T08:10:09;100975.48217773438;;;16.13;66.4
44531;BME280;30240;47.418;0.700;2023-05-24T08:12:34;100975.48217773438;;;16.13;66.4
44531;BME280;30240;47.418;0.700;2023-05-24T08:14:59;100971.5087890625;;;16.17;66.98
44531;BME280;30240;47.418;0.700;2023-05-24T08:17:25;100979.31518554688;;;16.01;66.13
44531;BME280;30240;47.418;0.700;2023-05-24T08:19:49;100982.6416015625;;;16.09;65.9
44531;BME280;30240;47.418;0.700;2023-05-24T08:22:13;100977.6123046875;;;16.12;65.94
44531;BME280;30240;47.418;0.700;2023-05-24T08:24:38;100976.3916015625;;;16.64;65.04
44531;BME280;30240;47.418;0.700;2023-05-24T08:27:04;100976.3916015625;;;16.64;65.04
44531;BME280;30240;47.418;0.700;2023-05-24T08:29:29;100977.9541015625;;;16.4;65.15
44531;BME280;30240;47.418;0.700;2023-05-24T08:31:53;100981.40869140625;;;16.48;64.9
44531;BME280;30240;47.418;0.700;2023-05-24T08:34:18;100979.6142578125;;;16.96;63.81
44531;BME280;30240;47.418;0.700;2023-05-24T08:36:44;100969.84252929688;;;16.99;63.83
44531;BME280;30240;47.418;0.700;2023-05-24T08:39:08;100969.84252929688;;;16.99;63.83
44531;BME280;30240;47.418;0.700;2023-05-24T08:41:34;100973.0224609375;;;17.18;63.6
44531;BME280;30240;47.418;0.700;2023-05-24T08:43:59;100980.89599609375;;;17.63;61.88
44531;BME280;30240;47.418;0.700;2023-05-24T08:46:24;100971.142578125;;;17.42;62.02
44531;BME280;30240;47.418;0.700;2023-05-24T08:48:50;100970.86181640625;;;17.66;61.11
44531;BME280;30240;47.418;0.700;2023-05-24T08:51:15;100970.86181640625;;;17.66;61.11
44531;BME280;30240;47.418;0.700;2023-05-24T08:53:39;100971.51489257812;;;18.38;60.11
44531;BME280;30240;47.418;0.700;2023-05-24T08:56:04;100974.27368164062;;;18.73;59.22
44531;BME280;30240;47.418;0.700;2023-05-24T08:58:29;100974.02954101562;;;18.7;59.23
44531;BME280;30240;47.418;0.700;2023-05-24T09:00:54;100971.0205078125;;;17.89;60.19
44531;BME280;30240;47.418;0.700;2023-05-24T09:03:19;100971.0205078125;;;17.89;60.19
44531;BME280;30240;47.418;0.700;2023-05-24T09:05:44;100979.55322265625;;;19.59;57.58
44531;BME280;30240;47.418;0.700;2023-05-24T09:08:09;100975.27465820312;;;18.44;59.16
44531;BME280;30240;47.418;0.700;2023-05-24T09:10:34;100971.7529296875;;;18.91;58.17
44531;BME280;30240;47.418;0.700;2023-05-24T09:13:01;100974.27978515625;;;20.08;55.75
44531;BME280;30240;47.418;0.700;2023-05-24T09:15:24;100974.27978515625;;;20.08;55.75
44531;BME280;30240;47.418;0.700;2023-05-24T09:17:48;100977.75268554688;;;19.88;55.27
44531;BME280;30240;47.418;0.700;2023-05-24T09:20:14;100972.67456054688;;;20.28;55.07
44531;BME280;30240;47.418;0.700;2023-05-24T09:22:40;100970.25756835938;;;18.94;56.21
44531;BME280;30240;47.418;0.700;2023-05-24T09:25:04;100960.21728515625;;;19.57;55.62
44531;BME280;30240;47.418;0.700;2023-05-24T09:27:30;100960.21728515625;;;19.57;55.62
44531;BME280;30240;47.418;0.700;2023-05-24T09:29:54;100956.06079101562;;;19.94;54.28
44531;BME280;30240;47.418;0.700;2023-05-24T09:32:20;100956.82983398438;;;20.92;53.34
44531;BME280;30240;47.418;0.700;2023-05-24T09:34:44;100950.634765625;;;20.5;53.88
44531;BME280;30240;47.418;0.700;2023-05-24T09:37:10;100952.6123046875;;;21.05;52.49
44531;BME280;30240;47.418;0.700;2023-05-24T09:39:34;100952.6123046875;;;21.05;52.49
44531;BME280;30240;47.418;0.700;2023-05-24T09:41:59;100957.72094726562;;;20.25;53.29
44531;BME280;30240;47.418;0.700;2023-05-24T09:44:24;100954.65698242188;;;20.32;53.95
44531;BME280;30240;47.418;0.700;2023-05-24T09:46:48;100948.05297851562;;;20.89;51.92
44531;BME280;30240;47.418;0.700;2023-05-24T09:49:13;100956.56127929688;;;21.2;53.39
44531;BME280;30240;47.418;0.700;2023-05-24T09:51:39;100948.5595703125;;;21.16;52.13
44531;BME280;30240;47.418;0.700;2023-05-24T09:54:04;100948.5595703125;;;21.16;52.13
44531;BME280;30240;47.418;0.700;2023-05-24T09:56:29;100943.65844726562;;;21.95;50.1
44531;BME280;30240;47.418;0.700;2023-05-24T09:58:54;100944.81811523438;;;20.78;52.53
44531;BME280;30240;47.418;0.700;2023-05-24T10:01:21;100953.40576171875;;;20.92;52.69
44531;BME280;30240;47.418;0.700;2023-05-24T10:03:52;100945.64819335938;;;20.13;53.65
44531;BME280;30240;47.418;0.700;2023-05-24T10:06:09;100945.64819335938;;;20.13;53.65
44531;BME280;30240;47.418;0.700;2023-05-24T10:08:34;100937.60986328125;;;20.92;51.93
44531;BME280;30240;47.418;0.700;2023-05-24T10:11:00;100937.60986328125;;;20.88;50.97
44531;BME280;30240;47.418;0.700;2023-05-24T10:13:24;100934.11865234375;;;21.33;50.49
44531;BME280;30240;47.418;0.700;2023-05-24T10:15:52;100935.60791015625;;;21.92;49.06
44531;BME280;30240;47.418;0.700;2023-05-24T10:18:17;100935.60791015625;;;21.92;49.06
44531;BME280;30240;47.418;0.700;2023-05-24T10:20:39;100937.29858398438;;;21.81;49.83
44531;BME280;30240;47.418;0.700;2023-05-24T10:23:06;100933.87451171875;;;21.51;49.24
44531;BME280;30240;47.418;0.700;2023-05-24T10:25:32;100933.14819335938;;;21.31;48.86
44531;BME280;30240;47.418;0.700;2023-05-24T10:27:56;100928.74755859375;;;21.44;48.41
44531;BME280;30240;47.418;0.700;2023-05-24T10:30:24;100928.74755859375;;;21.44;48.41
44531;BME280;30240;47.418;0.700;2023-05-24T10:32:47;100929.4921875;;;22.27;45.9
44531;BME280;30240;47.418;0.700;2023-05-24T10:35:09;100923.71826171875;;;22.41;45.59
44531;BME280;30240;47.418;0.700;2023-05-24T10:37:34;100919.873046875;;;21.38;45.97
44531;BME280;30240;47.418;0.700;2023-05-24T10:39:59;100909.53369140625;;;21.75;45.56
44531;BME280;30240;47.418;0.700;2023-05-24T10:42:24;100909.53369140625;;;21.75;45.56
44531;BME280;30240;47.418;0.700;2023-05-24T10:44:48;100912.12768554688;;;21.95;44.88
44531;BME280;30240;47.418;0.700;2023-05-24T10:47:14;100906.04858398438;;;22.7;42.76
44531;BME280;30240;47.418;0.700;2023-05-24T10:49:48;100903.8330078125;;;22.79;43.36
44531;BME280;30240;47.418;0.700;2023-05-24T10:52:06;100909.86938476562;;;22.96;42.02
44531;BME280;30240;47.418;0.700;2023-05-24T10:54:29;100909.86938476562;;;22.96;42.02
44531;BME280;30240;47.418;0.700;2023-05-24T10:56:53;100903.7109375;;;23.15;43.38
44531;BME280;30240;47.418;0.700;2023-05-24T10:59:24;100902.15454101562;;;22.41;44.97
44531;BME280;30240;47.418;0.700;2023-05-24T11:01:44;100909.56420898438;;;22.38;40.74
44531;BME280;30240;47.418;0.700;2023-05-24T11:04:10;100899.7802734375;;;23.13;38.85
44531;BME280;30240;47.418;0.700;2023-05-24T11:06:45;100899.7802734375;;;23.13;38.85
44531;BME280;30240;47.418;0.700;2023-05-24T11:08:59;100906.689453125;;;22.69;42.51
44531;BME280;30240;47.418;0.700;2023-05-24T11:11:25;100898.2666015625;;;23.42;39.93
44531;BME280;30240;47.418;0.700;2023-05-24T11:13:54;100896.28295898438;;;23.25;42.36
44531;BME280;30240;47.418;0.700;2023-05-24T11:16:33;100907.01293945312;;;22.72;43.35
44531;BME280;30240;47.418;0.700;2023-05-24T11:18:38;100907.01293945312;;;22.72;43.35
44531;BME280;30240;47.418;0.700;2023-05-24T11:21:05;100912.78076171875;;;22.37;41.26